CheckWX is a tool to help pilots better visualize weather data.  It is not intended as a substitute for an official pre-flight weather briefing.

16:25:05 UTC

KSLG METAR
Smith Field Airport
Siloam Springs, Arkansas, USA
Current

29 mins ago

KSLG 171556Z AUTO 15004KT 10SM CLR 14/08 A3008 RMK AO2 SLP185 T01390078
Observed
Oct-17 @ 15:56 UTC
Wind
  • 150° at 4 KTS
Visibility
10 SM
Flight Rules
VFR
Cloud Levels
  • Clear skies
Temperature
14°C / 57°F
Dewpoint
C / 46°F
Humidity
67%
Altimeter
30.08" Hg
Pressure
1018.62 hPa
Previous

1 hour ago

KSLG 171456Z AUTO 14004KT 10SM CLR 11/08 A3009 RMK AO2 SLP190 T01110078 50002
Observed
Oct-17 @ 14:56 UTC
Wind
  • 140° at 4 KTS
Visibility
10 SM
Flight Rules
VFR
Cloud Levels
  • Clear skies
Temperature
11°C / 52°F
Dewpoint
C / 46°F
Humidity
82%
Altimeter
30.09" Hg
Pressure
1018.92 hPa
Previous

2 hours ago

KSLG 171356Z AUTO 09003KT 10SM CLR 07/06 A3010 RMK AO2 SLP194 T00720061
Observed
Oct-17 @ 13:56 UTC
Wind
  • 090° at 3 KTS
Visibility
10 SM
Flight Rules
VFR
Cloud Levels
  • Clear skies
Temperature
C / 45°F
Dewpoint
C / 43°F
Humidity
93%
Altimeter
30.1" Hg
Pressure
1019.32 hPa